Time;durP1;ratioP1;P1;durP2;ratioP2;P2;SDS_P1;SDS_P2;PMS_P1;PMS_P2;Temp;Humidity;BMP_temperature;BMP_pressure;BME280_temperature;BME280_humidity;BME280_pressure;Samples;Min_cycle;Max_cycle;Signal;HPM_P1;HPM_P2
2023/02/04 00:01:47;;;;;;;;;;;;;;;21.40;39.90;103313.59;7258029;19;153934;-74
2023/02/04 00:04:14;;;;;;;;;;;;;;;21.36;40.35;103313.25;7257383;19;157058;-75
2023/02/04 00:06:42;;;;;;;;;;;;;;;21.39;40.10;103314.72;7253363;19;154150;-75
2023/02/04 00:09:10;;;;;;;;;;;;;;;21.34;40.26;103318.31;7256490;19;154340;-75
2023/02/04 00:11:37;;;;;;;;;;;;;;;21.32;40.34;103308.41;7256095;19;157350;-74
2023/02/04 00:14:04;;;;;;;;;;;;;;;21.33;40.11;103313.78;7255368;19;153294;-75
2023/02/04 00:16:32;;;;;;;;;;;;;;;21.28;40.31;103308.06;7258165;19;153867;-75
2023/02/04 00:18:59;;;;;;;;;;;;;;;21.27;39.96;103306.34;7258165;19;156127;-75
2023/02/04 00:21:26;;;;;;;;;;;;;;;21.27;40.47;103307.22;7264899;19;153540;-74
2023/02/04 00:23:54;;;;;;;;;;;;;;;21.26;40.27;103316.75;7256159;19;154363;-74
2023/02/04 00:26:22;;;;;;;;;;;;;;;21.20;40.19;103311.31;7257478;19;153956;-74
2023/02/04 00:28:48;;;;;;;;;;;;;;;21.21;40.56;103311.03;7260186;19;155092;-74
2023/02/04 00:31:16;;;;;;;;;;;;;;;21.24;40.41;103312.50;7260163;19;156874;-77
2023/02/04 00:33:43;;;;;;;;;;;;;;;21.20;40.85;103312.16;7259717;19;153713;-75
2023/02/04 00:36:13;;;;;;;;;;;;;;;21.18;40.73;103324.75;7259776;19;155253;-75
2023/02/04 00:38:41;;;;;;;;;;;;;;;21.18;40.54;103322.81;7259078;19;154937;-75
2023/02/04 00:41:08;;;;;;;;;;;;;;;21.19;40.67;103329.28;7269990;19;153328;-75
2023/02/04 00:43:35;;;;;;;;;;;;;;;21.17;40.97;103329.53;7261831;19;155227;-75
2023/02/04 00:46:03;;;;;;;;;;;;;;;21.16;41.10;103322.22;7264136;19;153863;-76
2023/02/04 00:48:30;;;;;;;;;;;;;;;21.17;40.96;103317.44;7261774;19;154606;-74
2023/02/04 00:50:57;;;;;;;;;;;;;;;21.12;40.84;103315.34;7260580;19;157812;-75
2023/02/04 00:53:23;;;;;;;;;;;;;;;21.12;41.07;103326.59;7264037;19;154457;-75
2023/02/04 00:55:50;;;;;;;;;;;;;;;21.11;41.17;103319.28;7263745;19;153591;-75
2023/02/04 00:58:17;;;;;;;;;;;;;;;21.08;41.24;103331.03;7258110;19;155580;-75
2023/02/04 01:00:44;;;;;;;;;;;;;;;21.10;41.25;103327.97;7261345;19;152535;-75
2023/02/04 01:03:11;;;;;;;;;;;;;;;21.07;41.63;103334.09;7265164;19;156117;-74
2023/02/04 01:05:38;;;;;;;;;;;;;;;21.05;41.45;103330.69;7258826;19;154360;-74
2023/02/04 01:08:06;;;;;;;;;;;;;;;21.05;41.65;103327.88;7259101;19;154531;-74
2023/02/04 01:10:33;;;;;;;;;;;;;;;21.05;41.66;103333.50;7258436;19;154533;-74
2023/02/04 01:13:00;;;;;;;;;;;;;;;21.02;41.93;103326.44;7259377;19;153601;-75
2023/02/04 01:15:27;;;;;;;;;;;;;;;21.01;41.74;103335.97;7261115;19;153639;-75
2023/02/04 01:17:56;;;;;;;;;;;;;;;20.99;41.84;103342.94;7255007;19;154880;-74
2023/02/04 01:20:24;;;;;;;;;;;;;;;20.98;41.88;103346.88;7258918;19;155166;-75
2023/02/04 01:22:51;;;;;;;;;;;;;;;20.97;41.81;103345.16;7262132;19;152587;-74
2023/02/04 01:25:18;;;;;;;;;;;;;;;20.97;41.75;103350.78;7266864;19;157605;-74
2023/02/04 01:27:45;;;;;;;;;;;;;;;20.92;42.00;103343.13;7259494;19;153117;-74
2023/02/04 01:30:13;;;;;;;;;;;;;;;20.92;42.21;103337.50;7260018;19;154027;-74
2023/02/04 01:32:40;;;;;;;;;;;;;;;20.88;42.35;103341.91;7262392;19;153939;-75
2023/02/04 01:35:07;;;;;;;;;;;;;;;20.88;42.43;103347.53;7260595;19;153672;-74
2023/02/04 01:37:35;;;;;;;;;;;;;;;20.86;42.48;103350.59;7255584;19;153123;-74
2023/02/04 01:40:02;;;;;;;;;;;;;;;20.83;42.13;103351.09;7259477;19;153953;-74
2023/02/04 01:42:29;;;;;;;;;;;;;;;20.82;42.58;103352.19;7260834;19;155777;-74
2023/02/04 01:44:57;;;;;;;;;;;;;;;20.83;42.47;103361.47;7258993;19;154680;-75
2023/02/04 01:47:24;;;;;;;;;;;;;;;20.81;42.44;103358.91;7264693;19;154592;-76
2023/02/04 01:49:53;;;;;;;;;;;;;;;20.78;42.84;103361.38;7256998;19;154059;-74
2023/02/04 01:52:21;;;;;;;;;;;;;;;20.78;42.83;103358.56;7255009;19;152424;-74
2023/02/04 01:54:48;;;;;;;;;;;;;;;20.80;42.59;103359.19;7256647;19;155178;-73
2023/02/04 01:57:15;;;;;;;;;;;;;;;20.76;42.87;103360.75;7253718;19;155248;-74
2023/02/04 01:59:43;;;;;;;;;;;;;;;20.75;42.94;103364.69;7256880;19;153354;-75
2023/02/04 02:02:13;;;;;;;;;;;;;;;20.74;42.59;103369.47;7257403;19;154167;-75
2023/02/04 02:04:41;;;;;;;;;;;;;;;20.75;43.01;103362.75;7261100;19;155644;-74
2023/02/04 02:07:10;;;;;;;;;;;;;;;20.73;42.65;103355.66;7258873;19;153857;-74
2023/02/04 02:09:37;;;;;;;;;;;;;;;20.70;43.00;103364.59;7267297;19;155122;-75
2023/02/04 02:12:05;;;;;;;;;;;;;;;20.68;43.07;103359.22;7260735;19;154549;-75
2023/02/04 02:14:32;;;;;;;;;;;;;;;20.67;42.86;103356.69;7258905;19;153640;-74
2023/02/04 02:16:59;;;;;;;;;;;;;;;20.66;42.83;103364.25;7255358;19;156173;-74
2023/02/04 02:19:31;;;;;;;;;;;;;;;20.63;43.02;103361.94;7255898;19;152604;-74
2023/02/04 02:22:03;;;;;;;;;;;;;;;20.60;43.43;103361.59;7254024;19;155037;-74
2023/02/04 02:24:35;;;;;;;;;;;;;;;20.62;43.38;103356.59;7256812;19;153966;-75
2023/02/04 02:27:04;;;;;;;;;;;;;;;20.62;43.38;103354.63;7256930;19;154500;-75
2023/02/04 02:29:31;;;;;;;;;;;;;;;20.59;43.50;103354.25;7257410;19;154743;-74
2023/02/04 02:31:58;;;;;;;;;;;;;;;20.57;43.27;103357.34;7267228;19;152990;-74
2023/02/04 02:34:26;;;;;;;;;;;;;;;20.56;43.27;103351.94;7258459;19;153338;-74
2023/02/04 02:36:53;;;;;;;;;;;;;;;20.55;43.30;103362.34;7257306;19;155279;-74
2023/02/04 02:39:20;;;;;;;;;;;;;;;20.55;43.31;103359.53;7258365;19;153052;-74
2023/02/04 02:41:47;;;;;;;;;;;;;;;20.54;43.39;103357.81;7261042;19;154083;-74
2023/02/04 02:44:15;;;;;;;;;;;;;;;20.52;43.45;103359.19;7257177;19;154487;-74
2023/02/04 02:46:42;;;;;;;;;;;;;;;20.51;43.82;103358.31;7254896;19;153714;-74
2023/02/04 02:49:14;;;;;;;;;;;;;;;20.48;43.61;103356.03;7255529;19;154500;-74
2023/02/04 02:51:42;;;;;;;;;;;;;;;20.50;43.92;103361.38;7260585;19;154362;-74
2023/02/04 02:54:12;;;;;;;;;;;;;;;20.48;43.78;103352.34;7254332;19;156409;-73
2023/02/04 02:56:38;;;;;;;;;;;;;;;20.47;43.93;103356.25;7255619;19;153543;-74
2023/02/04 02:59:11;;;;;;;;;;;;;;;20.46;43.88;103357.34;7250907;19;153701;-73
2023/02/04 03:01:38;;;;;;;;;;;;;;;20.44;44.08;103349.19;7256026;19;153708;-74
2023/02/04 03:04:05;;;;;;;;;;;;;;;20.42;43.75;103342.97;7257160;19;155682;-74
2023/02/04 03:06:32;;;;;;;;;;;;;;;20.42;43.81;103342.97;7254355;19;153528;-74
2023/02/04 03:09:00;;;;;;;;;;;;;;;20.40;44.14;103346.00;7258257;19;154967;-74
2023/02/04 03:11:28;;;;;;;;;;;;;;;20.40;43.92;103345.16;7254617;19;152977;-74
2023/02/04 03:13:57;;;;;;;;;;;;;;;20.38;44.07;103341.75;7263172;19;153878;-74
2023/02/04 03:16:24;;;;;;;;;;;;;;;20.39;44.17;103343.47;7256465;19;153793;-74
2023/02/04 03:18:50;;;;;;;;;;;;;;;20.36;44.11;103338.34;7254569;19;153705;-74
2023/02/04 03:21:17;;;;;;;;;;;;;;;20.35;44.21;103339.47;7257110;19;155554;-73
2023/02/04 03:23:44;;;;;;;;;;;;;;;20.35;44.12;103331.03;7254955;19;155016;-74
2023/02/04 03:26:11;;;;;;;;;;;;;;;20.33;44.41;103336.03;7254882;19;154073;-74
2023/02/04 03:28:39;;;;;;;;;;;;;;;20.31;44.48;103333.47;7255444;19;153775;-74
2023/02/04 03:31:06;;;;;;;;;;;;;;;20.30;44.37;103331.78;7252296;19;154303;-74
2023/02/04 03:33:34;;;;;;;;;;;;;;;20.31;44.59;103336.28;7257658;19;153560;-74
2023/02/04 03:36:01;;;;;;;;;;;;;;;20.28;44.51;103345.19;7261288;19;153805;-74
2023/02/04 03:38:28;;;;;;;;;;;;;;;20.30;44.50;103330.94;7255856;19;153578;-74
2023/02/04 03:40:56;;;;;;;;;;;;;;;20.25;44.30;103323.22;7255032;19;157269;-74
2023/02/04 03:43:23;;;;;;;;;;;;;;;20.26;44.78;103335.31;7255169;19;156503;-74
2023/02/04 03:45:49;;;;;;;;;;;;;;;20.26;44.60;103335.31;7256348;19;154035;-74
2023/02/04 03:48:16;;;;;;;;;;;;;;;20.25;44.36;103336.41;7258053;19;154519;-74
2023/02/04 03:50:44;;;;;;;;;;;;;;;20.22;44.57;103332.13;7252266;19;155290;-74
2023/02/04 03:53:11;;;;;;;;;;;;;;;20.22;44.80;103336.88;7254582;19;152744;-74
2023/02/04 03:55:39;;;;;;;;;;;;;;;20.22;44.62;103339.69;7251868;19;154855;-74
2023/02/04 03:58:06;;;;;;;;;;;;;;;20.20;44.67;103344.72;7258586;19;155396;-74
2023/02/04 04:00:33;;;;;;;;;;;;;;;20.21;44.70;103343.63;7251132;19;153637;-74
2023/02/04 04:03:00;;;;;;;;;;;;;;;20.16;44.98;103344.38;7257124;19;154813;-74
2023/02/04 04:05:27;;;;;;;;;;;;;;;20.17;44.43;103340.44;7255143;19;153799;-74
2023/02/04 04:07:54;;;;;;;;;;;;;;;20.17;44.50;103343.25;7252807;19;154868;-74
2023/02/04 04:10:21;;;;;;;;;;;;;;;20.16;45.02;103327.53;7252395;19;154481;-74
2023/02/04 04:12:48;;;;;;;;;;;;;;;20.16;44.55;103340.69;7255040;19;154063;-74
2023/02/04 04:15:16;;;;;;;;;;;;;;;20.15;44.89;103330.56;7254047;19;155254;-74
2023/02/04 04:17:43;;;;;;;;;;;;;;;20.15;44.96;103341.78;7253372;19;154151;-74
2023/02/04 04:20:10;;;;;;;;;;;;;;;20.10;44.97;103347.28;7261324;19;153885;-74
2023/02/04 04:22:38;;;;;;;;;;;;;;;20.12;44.91;103360.00;7250377;19;155719;-74
2023/02/04 04:25:06;;;;;;;;;;;;;;;20.10;44.74;103355.72;7253619;19;153931;-74
2023/02/04 04:27:33;;;;;;;;;;;;;;;20.11;45.19;103360.22;7253016;19;153077;-74
2023/02/04 04:30:01;;;;;;;;;;;;;;;20.08;44.95;103355.94;7250900;19;156602;-74
2023/02/04 04:32:28;;;;;;;;;;;;;;;20.11;45.17;103357.44;7255664;19;152902;-75
2023/02/04 04:34:55;;;;;;;;;;;;;;;20.09;45.31;103357.66;7255499;19;153610;-75
2023/02/04 04:37:26;;;;;;;;;;;;;;;20.09;45.37;103366.09;7253196;19;155099;-74
2023/02/04 04:39:53;;;;;;;;;;;;;;;20.06;45.14;103357.31;7264176;19;153856;-74
2023/02/04 04:42:20;;;;;;;;;;;;;;;20.04;45.48;103360.34;7256373;19;154644;-74
2023/02/04 04:44:47;;;;;;;;;;;;;;;20.06;45.52;103360.13;7252991;19;154451;-74
2023/02/04 04:47:14;;;;;;;;;;;;;;;20.05;45.25;103364.00;7256756;19;154733;-74
2023/02/04 04:49:41;;;;;;;;;;;;;;;20.04;45.36;103365.97;7248100;19;155496;-75
2023/02/04 04:52:09;;;;;;;;;;;;;;;20.02;45.50;103368.19;7253943;19;153920;-74
2023/02/04 04:54:36;;;;;;;;;;;;;;;20.01;45.60;103369.28;7252496;19;155942;-75
2023/02/04 04:57:03;;;;;;;;;;;;;;;20.01;45.48;103369.28;7249424;19;155497;-74
2023/02/04 04:59:30;;;;;;;;;;;;;;;19.97;45.96;103374.53;7252465;19;154327;-74
2023/02/04 05:01:57;;;;;;;;;;;;;;;19.93;45.74;103376.13;7261002;19;153786;-75
2023/02/04 05:04:23;;;;;;;;;;;;;;;19.96;45.50;103378.44;7260550;19;153447;-74
2023/02/04 05:06:50;;;;;;;;;;;;;;;19.95;45.64;103385.13;7257679;19;154041;-75
2023/02/04 05:09:17;;;;;;;;;;;;;;;19.93;45.51;103378.06;7258667;19;155299;-75
2023/02/04 05:11:44;;;;;;;;;;;;;;;19.91;45.84;103375.50;7259503;19;154015;-75
2023/02/04 05:14:13;;;;;;;;;;;;;;;19.96;45.82;103381.22;7261566;19;155661;-75
2023/02/04 05:16:40;;;;;;;;;;;;;;;19.92;45.80;103377.22;7262442;19;154364;-75
2023/02/04 05:19:07;;;;;;;;;;;;;;;19.92;45.87;103379.16;7258350;19;153668;-74
2023/02/04 05:21:34;;;;;;;;;;;;;;;19.90;45.63;103376.59;7256721;19;153547;-74
2023/02/04 05:24:00;;;;;;;;;;;;;;;19.90;45.98;103384.16;7262857;19;154981;-74
2023/02/04 05:26:27;;;;;;;;;;;;;;;19.88;46.13;103378.81;7258636;19;155061;-74
2023/02/04 05:28:59;;;;;;;;;;;;;;;19.89;45.98;103388.09;7258207;19;154550;-74
2023/02/04 05:31:26;;;;;;;;;;;;;;;19.88;45.69;103390.03;7258147;19;152873;-74
2023/02/04 05:33:54;;;;;;;;;;;;;;;19.84;45.83;103390.75;7259693;19;154139;-74
2023/02/04 05:36:21;;;;;;;;;;;;;;;19.87;45.98;103391.13;7257768;19;154509;-74
2023/02/04 05:38:48;;;;;;;;;;;;;;;19.84;45.73;103391.63;7258580;19;154102;-75
2023/02/04 05:41:15;;;;;;;;;;;;;;;19.86;45.70;103388.56;7258541;19;153487;-73
2023/02/04 05:43:42;;;;;;;;;;;;;;;19.83;46.12;103397.47;7257940;19;154108;-74
2023/02/04 05:46:09;;;;;;;;;;;;;;;19.80;45.81;103398.81;7265410;19;153845;-74
2023/02/04 05:48:36;;;;;;;;;;;;;;;19.80;45.91;103398.81;7256692;19;154046;-74
2023/02/04 05:51:03;;;;;;;;;;;;;;;19.80;46.07;103397.97;7255987;19;152143;-74
2023/02/04 05:53:30;;;;;;;;;;;;;;;19.79;45.99;103399.06;7255371;19;157240;-74
2023/02/04 05:55:58;;;;;;;;;;;;;;;19.78;45.83;103398.19;7255873;19;154221;-74
2023/02/04 05:58:32;;;;;;;;;;;;;;;19.81;46.04;103399.66;7256175;19;154582;-74
2023/02/04 06:01:00;;;;;;;;;;;;;;;19.79;46.27;103399.06;7257237;19;153800;-74
2023/02/04 06:03:27;;;;;;;;;;;;;;;19.77;46.12;103399.28;7255272;19;155978;-74
2023/02/04 06:05:56;;;;;;;;;;;;;;;19.77;46.09;103402.09;7255704;19;152991;-74
2023/02/04 06:08:23;;;;;;;;;;;;;;;19.80;46.26;103401.63;7263823;19;155020;-74
2023/02/04 06:10:50;;;;;;;;;;;;;;;19.73;46.42;103403.69;7259742;19;153207;-74
2023/02/04 06:13:17;;;;;;;;;;;;;;;19.75;46.06;103404.31;7258015;19;155585;-74
2023/02/04 06:15:44;;;;;;;;;;;;;;;19.72;46.15;103407.56;7261412;19;154189;-74
2023/02/04 06:18:11;;;;;;;;;;;;;;;19.72;46.56;103412.31;7258405;19;153853;-74
2023/02/04 06:20:38;;;;;;;;;;;;;;;19.73;46.29;103405.63;7255136;19;154054;-74
2023/02/04 06:23:05;;;;;;;;;;;;;;;19.69;46.44;103396.84;7254452;19;154707;-74
2023/02/04 06:25:32;;;;;;;;;;;;;;;19.68;46.84;103403.56;7257549;19;152729;-74
2023/02/04 06:27:59;;;;;;;;;;;;;;;19.69;46.59;103422.09;7256900;19;155049;-74
2023/02/04 06:30:26;;;;;;;;;;;;;;;19.68;46.95;103417.56;7265294;19;154621;-74
2023/02/04 06:32:53;;;;;;;;;;;;;;;19.69;46.43;103419.28;7258465;19;154141;-73
2023/02/04 06:35:19;;;;;;;;;;;;;;;19.70;46.41;103414.53;7258944;19;155328;-73
2023/02/04 06:37:48;;;;;;;;;;;;;;;19.68;46.36;103420.38;7255646;19;154000;-74
2023/02/04 06:40:16;;;;;;;;;;;;;;;19.66;46.89;103419.78;7257216;19;154167;-74
2023/02/04 06:42:43;;;;;;;;;;;;;;;19.67;46.32;103424.28;7255932;19;155791;-75
2023/02/04 06:45:10;;;;;;;;;;;;;;;19.67;46.51;103426.25;7258584;19;154234;-75
2023/02/04 06:47:37;;;;;;;;;;;;;;;19.67;46.42;103427.06;7258148;19;155110;-74
2023/02/04 06:50:04;;;;;;;;;;;;;;;19.65;46.45;103431.22;7263065;19;155496;-74
2023/02/04 06:52:31;;;;;;;;;;;;;;;19.65;46.69;103439.66;7256906;19;154982;-74
2023/02/04 06:54:59;;;;;;;;;;;;;;;19.63;46.46;103442.69;7255963;19;154621;-74
2023/02/04 06:57:26;;;;;;;;;;;;;;;19.62;46.80;103445.75;7255995;19;153050;-74
2023/02/04 06:59:53;;;;;;;;;;;;;;;19.64;46.70;103435.13;7255831;19;153845;-74
2023/02/04 07:02:20;;;;;;;;;;;;;;;19.64;46.32;103430.38;7255496;19;155008;-74
2023/02/04 07:04:48;;;;;;;;;;;;;;;19.61;46.78;103442.09;7255894;19;153303;-74
2023/02/04 07:07:15;;;;;;;;;;;;;;;19.63;46.31;103444.63;7254832;19;154878;-74
2023/02/04 07:09:42;;;;;;;;;;;;;;;19.64;46.25;103447.19;7258642;19;154445;-74
2023/02/04 07:12:08;;;;;;;;;;;;;;;19.61;46.29;103435.63;7265910;19;154009;-74
2023/02/04 07:14:35;;;;;;;;;;;;;;;19.61;46.31;103433.69;7258322;19;155392;-74
2023/02/04 07:17:02;;;;;;;;;;;;;;;19.61;46.43;103428.06;7258497;19;153771;-74
2023/02/04 07:19:29;;;;;;;;;;;;;;;19.57;46.21;103431.59;7257761;19;154305;-74
2023/02/04 07:21:56;;;;;;;;;;;;;;;19.60;46.41;103434.75;7255586;19;154683;-74
2023/02/04 07:24:23;;;;;;;;;;;;;;;19.60;46.62;103434.75;7254445;19;154135;-74
2023/02/04 07:26:53;;;;;;;;;;;;;;;19.61;46.80;103435.63;7256068;19;154140;-74
2023/02/04 07:29:20;;;;;;;;;;;;;;;19.66;46.61;103447.84;7255312;19;153671;-74
2023/02/04 07:31:51;;;;;;;;;;;;;;;19.70;47.37;103449.06;7254032;19;152420;-74
2023/02/04 07:34:19;;;;;;;;;;;;;;;19.72;47.18;103446.84;7262885;19;154070;-74
2023/02/04 07:36:46;;;;;;;;;;;;;;;19.77;47.47;103451.72;7254803;19;154202;-74
2023/02/04 07:39:13;;;;;;;;;;;;;;;19.80;47.50;103449.31;7257437;19;153926;-74
2023/02/04 07:41:40;;;;;;;;;;;;;;;19.85;47.55;103446.59;7256407;19;154414;-74
2023/02/04 07:44:06;;;;;;;;;;;;;;;19.89;47.21;103450.66;7255985;19;152615;-74
2023/02/04 07:46:33;;;;;;;;;;;;;;;19.93;47.18;103454.69;7256562;19;154116;-74
2023/02/04 07:49:00;;;;;;;;;;;;;;;20.00;47.00;103457.34;7252296;19;154165;-74
2023/02/04 07:51:28;;;;;;;;;;;;;;;20.04;47.54;103460.53;7255773;19;153797;-75
2023/02/04 07:53:55;;;;;;;;;;;;;;;20.10;47.38;103466.03;7254944;19;154659;-74
2023/02/04 07:56:24;;;;;;;;;;;;;;;20.15;47.16;103465.28;7261833;19;153632;-74
2023/02/04 07:58:54;;;;;;;;;;;;;;;20.21;47.29;103472.75;7255187;19;155422;-76
2023/02/04 08:01:21;;;;;;;;;;;;;;;20.26;47.64;103472.88;7254986;19;155588;-75
2023/02/04 08:03:48;;;;;;;;;;;;;;;20.34;47.34;103470.56;7255330;19;152995;-74
2023/02/04 08:06:15;;;;;;;;;;;;;;;20.39;47.22;103473.50;7251160;19;154794;-74
2023/02/04 08:08:42;;;;;;;;;;;;;;;20.45;46.82;103473.59;7252582;19;157433;-75
2023/02/04 08:11:10;;;;;;;;;;;;;;;20.51;46.77;103481.91;7254656;19;153566;-74
2023/02/04 08:13:37;;;;;;;;;;;;;;;20.55;46.96;103487.88;7252262;19;156236;-75
2023/02/04 08:16:04;;;;;;;;;;;;;;;20.61;46.28;103487.75;7250917;19;155239;-75
2023/02/04 08:18:33;;;;;;;;;;;;;;;20.65;46.29;103485.28;7260342;19;153177;-75
2023/02/04 08:21:01;;;;;;;;;;;;;;;20.70;46.27;103483.47;7249186;19;154971;-75
2023/02/04 08:23:27;;;;;;;;;;;;;;;20.74;45.81;103490.28;7254924;19;153264;-75
2023/02/04 08:25:54;;;;;;;;;;;;;;;20.78;45.70;103493.44;7253539;19;155450;-75
2023/02/04 08:28:21;;;;;;;;;;;;;;;20.80;45.82;103497.69;7252357;19;153011;-75
2023/02/04 08:30:48;;;;;;;;;;;;;;;20.84;45.44;103501.75;7254911;19;153271;-75
2023/02/04 08:33:15;;;;;;;;;;;;;;;20.88;45.71;103509.66;7255510;19;155761;-75
2023/02/04 08:35:42;;;;;;;;;;;;;;;20.90;45.23;103507.44;7250886;19;155478;-74
2023/02/04 08:38:09;;;;;;;;;;;;;;;20.92;45.36;103511.72;7258507;19;152981;-74
2023/02/04 08:40:36;;;;;;;;;;;;;;;20.96;45.21;103510.13;7263981;19;154975;-75
2023/02/04 08:43:03;;;;;;;;;;;;;;;21.00;45.31;103514.16;7260274;19;153285;-74
2023/02/04 08:45:31;;;;;;;;;;;;;;;21.02;45.21;103517.56;7259049;19;155512;-74
2023/02/04 08:47:58;;;;;;;;;;;;;;;21.05;45.65;103517.06;7257885;19;154249;-75
2023/02/04 08:50:25;;;;;;;;;;;;;;;21.07;45.47;103520.50;7260026;19;153585;-74
2023/02/04 08:52:52;;;;;;;;;;;;;;;21.07;45.41;103525.25;7260079;19;154317;-74
2023/02/04 08:55:20;;;;;;;;;;;;;;;21.09;44.80;103523.03;7260363;19;154177;-74
2023/02/04 08:57:47;;;;;;;;;;;;;;;21.11;44.78;103523.66;7261684;19;154025;-75
2023/02/04 09:00:15;;;;;;;;;;;;;;;21.12;44.81;103528.19;7266319;19;154947;-74
2023/02/04 09:02:42;;;;;;;;;;;;;;;21.12;44.71;103529.00;7261305;19;153571;-74
2023/02/04 09:05:09;;;;;;;;;;;;;;;21.12;44.38;103528.19;7258748;19;154333;-75
2023/02/04 09:07:36;;;;;;;;;;;;;;;21.12;44.51;103537.44;7260504;19;154223;-75
2023/02/04 09:10:03;;;;;;;;;;;;;;;21.13;44.22;103541.13;7260056;19;153521;-75
2023/02/04 09:12:30;;;;;;;;;;;;;;;21.13;44.59;103538.34;7260372;19;154021;-75
2023/02/04 09:14:58;;;;;;;;;;;;;;;21.11;44.55;103538.56;7258135;19;154516;-74
2023/02/04 09:17:24;;;;;;;;;;;;;;;21.13;44.69;103535.53;7259835;19;153791;-75
2023/02/04 09:19:52;;;;;;;;;;;;;;;21.12;44.67;103540.25;7259216;19;154158;-75
2023/02/04 09:22:19;;;;;;;;;;;;;;;21.11;44.64;103548.97;7266878;19;153946;-75
2023/02/04 09:24:46;;;;;;;;;;;;;;;21.08;44.54;103541.00;7258417;19;155067;-75
2023/02/04 09:27:13;;;;;;;;;;;;;;;21.08;43.91;103546.63;7256917;19;156102;-74
2023/02/04 09:29:40;;;;;;;;;;;;;;;21.07;43.54;103536.50;7258023;19;154944;-75
2023/02/04 09:32:06;;;;;;;;;;;;;;;21.04;43.04;103537.84;7259104;19;153453;-74
2023/02/04 09:34:34;;;;;;;;;;;;;;;21.06;43.09;103534.78;7255957;19;152517;-75
2023/02/04 09:37:00;;;;;;;;;;;;;;;21.02;42.64;103533.59;7257452;19;154707;-75
2023/02/04 09:39:28;;;;;;;;;;;;;;;21.00;42.72;103536.63;7257331;19;153346;-74
2023/02/04 09:41:55;;;;;;;;;;;;;;;20.96;42.56;103534.56;7253410;19;155628;-75
2023/02/04 09:44:24;;;;;;;;;;;;;;;20.95;42.30;103538.47;7262440;19;153971;-75
2023/02/04 09:46:52;;;;;;;;;;;;;;;20.93;42.30;103533.13;7255653;19;155336;-75
2023/02/04 09:49:19;;;;;;;;;;;;;;;20.92;42.05;103537.03;7255097;19;153782;-74
2023/02/04 09:51:47;;;;;;;;;;;;;;;20.87;41.98;103534.09;7257849;19;153609;-75
2023/02/04 09:54:15;;;;;;;;;;;;;;;20.84;42.04;103541.09;7258329;19;153260;-75
2023/02/04 09:56:43;;;;;;;;;;;;;;;20.82;42.12;103554.50;7257724;19;154157;-74
2023/02/04 09:59:11;;;;;;;;;;;;;;;20.80;42.07;103555.88;7258992;19;153784;-75
2023/02/04 10:01:39;;;;;;;;;;;;;;;20.72;42.20;103553.41;7256130;19;154488;-74
2023/02/04 10:04:09;;;;;;;;;;;;;;;20.68;42.26;103561.50;7256986;19;154002;-75
2023/02/04 10:06:36;;;;;;;;;;;;;;;20.65;42.43;103555.53;7259327;19;153742;-74
2023/02/04 10:09:04;;;;;;;;;;;;;;;20.66;42.70;103555.28;7257069;19;154124;-74
2023/02/04 10:11:33;;;;;;;;;;;;;;;20.66;42.60;103560.91;7257284;19;155594;-74
2023/02/04 10:14:00;;;;;;;;;;;;;;;20.64;42.76;103562.22;7253890;19;157080;-74
2023/02/04 10:16:31;;;;;;;;;;;;;;;20.63;42.49;103554.91;7253915;19;154033;-75
2023/02/04 10:19:00;;;;;;;;;;;;;;;20.59;42.37;103556.50;7256420;19;155058;-74
2023/02/04 10:21:29;;;;;;;;;;;;;;;20.60;42.41;103561.00;7250798;19;156876;-75
2023/02/04 10:23:56;;;;;;;;;;;;;;;20.56;42.58;103557.84;7256195;19;154332;-74
2023/02/04 10:26:26;;;;;;;;;;;;;;;20.58;42.57;103560.44;7256588;19;155764;-75
2023/02/04 10:28:57;;;;;;;;;;;;;;;20.50;40.85;103564.44;7263338;19;155101;-73
2023/02/04 10:31:26;;;;;;;;;;;;;;;20.09;40.04;103568.16;7256481;19;155308;-73
2023/02/04 10:33:57;;;;;;;;;;;;;;;19.82;39.99;103567.75;7258192;19;153037;-73
2023/02/04 10:36:24;;;;;;;;;;;;;;;19.60;39.69;103566.56;7254730;19;153640;-75
2023/02/04 10:38:54;;;;;;;;;;;;;;;19.40;40.42;103569.63;7228167;19;154574;-73
2023/02/04 10:41:23;;;;;;;;;;;;;;;19.34;40.31;103575.34;7248110;19;153524;-73
2023/02/04 10:43:54;;;;;;;;;;;;;;;19.21;40.77;103573.56;7252395;19;153071;-73
2023/02/04 10:46:21;;;;;;;;;;;;;;;19.00;40.42;103582.44;7246341;19;154942;-73
2023/02/04 10:48:49;;;;;;;;;;;;;;;18.88;40.88;103584.31;7247648;19;153503;-73
2023/02/04 10:51:17;;;;;;;;;;;;;;;18.78;40.91;103590.47;7255882;19;155232;-73
2023/02/04 10:56:16;;;;;;;;;;;;;;;18.69;41.54;103586.25;7253481;19;152772;-73
2023/02/04 10:58:43;;;;;;;;;;;;;;;18.58;41.13;103593.44;7251883;19;155515;-74
2023/02/04 11:01:12;;;;;;;;;;;;;;;18.49;41.92;103599.53;7253878;19;153483;-73
2023/02/04 11:03:39;;;;;;;;;;;;;;;18.38;41.66;103597.50;7254335;19;153503;-73
2023/02/04 11:06:10;;;;;;;;;;;;;;;18.31;42.17;103599.50;7251113;19;157056;-73
2023/02/04 11:08:37;;;;;;;;;;;;;;;18.20;42.20;103593.59;7248686;19;154808;-73
2023/02/04 11:11:06;;;;;;;;;;;;;;;18.17;42.18;103596.81;7260142;19;152949;-73
2023/02/04 11:13:36;;;;;;;;;;;;;;;18.15;41.28;103593.41;7249614;19;154053;-73
2023/02/04 11:16:07;;;;;;;;;;;;;;;17.91;41.30;103596.16;7248041;19;155385;-73
2023/02/04 11:18:38;;;;;;;;;;;;;;;17.88;41.16;103596.63;7252486;19;154872;-73
2023/02/04 11:21:12;;;;;;;;;;;;;;;18.11;41.87;103589.34;7247616;19;156713;-73
2023/02/04 11:23:40;;;;;;;;;;;;;;;18.28;42.15;103585.97;7253408;19;153594;-73
2023/02/04 11:26:07;;;;;;;;;;;;;;;18.40;42.32;103585.00;7250795;19;154246;-74
2023/02/04 11:28:37;;;;;;;;;;;;;;;18.48;42.76;103584.72;7247549;19;155582;-74
2023/02/04 11:31:12;;;;;;;;;;;;;;;18.55;42.96;103587.47;7251593;19;153832;-73
2023/02/04 11:33:41;;;;;;;;;;;;;;;18.61;42.83;103580.97;7244290;19;156685;-73
2023/02/04 11:36:11;;;;;;;;;;;;;;;18.69;43.05;103579.78;7242078;19;154684;-73
2023/02/04 11:38:46;;;;;;;;;;;;;;;18.74;43.24;103586.41;7250003;19;155903;-73
2023/02/04 11:41:15;;;;;;;;;;;;;;;18.79;43.50;103580.13;7248634;19;156243;-73
2023/02/04 11:43:42;;;;;;;;;;;;;;;18.82;43.44;103574.03;7253158;19;152620;-73
2023/02/04 11:46:12;;;;;;;;;;;;;;;18.86;43.26;103586.47;7253442;19;153841;-73
2023/02/04 11:48:40;;;;;;;;;;;;;;;18.87;43.23;103577.84;7253269;19;154452;-73
2023/02/04 11:51:10;;;;;;;;;;;;;;;18.92;43.49;103582.75;7252047;19;153720;-73
2023/02/04 11:53:38;;;;;;;;;;;;;;;18.92;42.97;103575.22;7249632;19;155391;-73
2023/02/04 11:56:05;;;;;;;;;;;;;;;18.96;43.30;103589.59;7257774;19;156674;-73
2023/02/04 11:58:37;;;;;;;;;;;;;;;18.95;43.32;103587.88;7254816;19;155706;-74
2023/02/04 12:01:07;;;;;;;;;;;;;;;18.94;43.47;103591.81;7232093;19;155538;-73
2023/02/04 12:03:44;;;;;;;;;;;;;;;18.97;43.06;103580.13;7249742;19;153930;-73
2023/02/04 12:06:19;;;;;;;;;;;;;;;18.99;43.20;103583.53;7249727;19;154215;-73
2023/02/04 12:08:46;;;;;;;;;;;;;;;19.00;43.05;103580.50;7256315;19;156906;-73
2023/02/04 12:11:16;;;;;;;;;;;;;;;19.02;43.10;103586.75;7258860;19;154066;-73
2023/02/04 12:13:46;;;;;;;;;;;;;;;19.04;43.32;103583.69;7268515;19;155043;-74
2023/02/04 12:16:13;;;;;;;;;;;;;;;19.05;43.31;103582.59;7267596;19;155623;-74
2023/02/04 12:18:40;;;;;;;;;;;;;;;19.04;43.03;103583.69;7279883;19;152493;-74
2023/02/04 12:21:07;;;;;;;;;;;;;;;19.06;43.11;103587.97;7266543;19;155441;-76
2023/02/04 12:23:34;;;;;;;;;;;;;;;19.08;43.01;103587.72;7268987;19;154098;-73
2023/02/04 12:26:01;;;;;;;;;;;;;;;19.07;42.99;103581.28;7268023;19;154075;-72
2023/02/04 12:28:28;;;;;;;;;;;;;;;19.09;43.15;103587.50;7266123;19;155483;-72
2023/02/04 12:30:56;;;;;;;;;;;;;;;19.08;43.30;103587.72;7267619;19;153268;-72
2023/02/04 12:33:23;;;;;;;;;;;;;;;19.08;43.38;103588.59;7267668;19;154234;-74